createdAt,value
2023-04-30T00:00:11.248Z,20.60
2023-04-30T00:02:39.674Z,15.17
2023-04-30T00:05:08.778Z,17.53
2023-04-30T00:07:36.765Z,17.70
2023-04-30T00:10:05.950Z,19.83
2023-04-30T00:12:33.748Z,18.07
2023-04-30T00:15:01.811Z,19.50
2023-04-30T00:17:29.777Z,19.60
2023-04-30T00:19:57.354Z,20.03
2023-04-30T00:22:25.242Z,22.10
2023-04-30T00:24:53.251Z,19.47
2023-04-30T00:27:21.138Z,20.13
2023-04-30T00:29:48.997Z,23.00
2023-04-30T00:32:17.010Z,20.07
2023-04-30T00:34:44.899Z,21.93
2023-04-30T00:37:12.869Z,18.20
2023-04-30T00:39:40.470Z,20.30
2023-04-30T00:42:10.985Z,19.23
2023-04-30T00:44:38.775Z,18.67
2023-04-30T00:47:06.312Z,19.23
2023-04-30T00:49:33.760Z,20.20
2023-04-30T00:52:01.446Z,20.63
2023-04-30T00:54:29.604Z,19.53
2023-04-30T00:56:57.529Z,22.23
2023-04-30T00:59:26.152Z,22.53
2023-04-30T01:01:53.781Z,18.10
2023-04-30T01:04:21.768Z,18.63
2023-04-30T01:06:49.229Z,19.30
2023-04-30T01:09:18.529Z,20.80
2023-04-30T01:12:09.808Z,20.33
2023-04-30T01:15:09.678Z,20.50
2023-04-30T01:17:45.623Z,17.33
2023-04-30T01:20:13.588Z,18.45
2023-04-30T01:22:49.754Z,18.50
2023-04-30T01:25:40.107Z,21.98
2023-04-30T01:28:11.085Z,18.47
2023-04-30T01:30:40.796Z,21.40
2023-04-30T01:33:08.593Z,21.43
2023-04-30T01:35:58.460Z,18.90
2023-04-30T01:38:43.984Z,21.30
2023-04-30T01:41:34.878Z,23.97
2023-04-30T01:44:13.492Z,20.87
2023-04-30T01:46:47.402Z,22.63
2023-04-30T01:49:26.540Z,20.03
2023-04-30T01:51:57.375Z,21.10
2023-04-30T01:54:35.240Z,18.57
2023-04-30T01:57:04.652Z,17.70
2023-04-30T01:59:39.181Z,19.87
2023-04-30T02:02:06.840Z,19.77
2023-04-30T02:04:34.416Z,21.03
2023-04-30T02:07:01.954Z,21.17
2023-04-30T02:09:29.860Z,20.27
2023-04-30T02:11:57.968Z,22.80
2023-04-30T02:14:25.854Z,21.23
2023-04-30T02:16:53.811Z,20.70
2023-04-30T02:19:21.684Z,23.10
2023-04-30T02:21:49.227Z,23.23
2023-04-30T02:24:16.764Z,21.80
2023-04-30T02:26:44.931Z,21.30
2023-04-30T02:29:12.873Z,24.93
2023-04-30T02:31:40.442Z,25.33
2023-04-30T02:34:09.895Z,22.77
2023-04-30T02:36:38.022Z,21.50
2023-04-30T02:39:06.287Z,20.67
2023-04-30T02:41:33.831Z,22.17
2023-04-30T02:44:01.352Z,21.43
2023-04-30T02:46:29.265Z,20.67
2023-04-30T02:48:56.701Z,21.97
2023-04-30T02:51:24.561Z,24.40
2023-04-30T02:53:52.109Z,22.57
2023-04-30T02:56:20.010Z,23.93
2023-04-30T02:58:47.793Z,22.33
2023-04-30T03:01:15.591Z,22.33
2023-04-30T03:03:43.723Z,23.13
2023-04-30T03:06:11.701Z,23.23
2023-04-30T03:08:39.575Z,22.07
2023-04-30T03:11:08.232Z,22.30
2023-04-30T03:13:36.078Z,25.90
2023-04-30T03:16:05.118Z,21.20
2023-04-30T03:18:33.089Z,29.70
2023-04-30T03:21:01.306Z,28.13
2023-04-30T03:23:29.231Z,24.80
2023-04-30T03:25:57.488Z,23.63
2023-04-30T03:28:25.463Z,25.93
2023-04-30T03:30:53.482Z,26.13
2023-04-30T03:33:22.152Z,24.43
2023-04-30T03:35:50.735Z,26.30
2023-04-30T03:38:18.616Z,24.67
2023-04-30T03:40:46.190Z,24.40
2023-04-30T03:43:13.975Z,25.40
2023-04-30T03:45:42.321Z,27.83
2023-04-30T03:48:09.764Z,28.30
2023-04-30T03:50:37.411Z,23.73
2023-04-30T03:53:05.356Z,25.60
2023-04-30T03:55:33.162Z,29.70
2023-04-30T03:58:00.735Z,27.07
2023-04-30T04:00:28.247Z,32.10
2023-04-30T04:02:55.381Z,24.17
2023-04-30T04:05:23.210Z,23.30
2023-04-30T04:07:50.855Z,28.93
2023-04-30T04:10:18.828Z,27.50
2023-04-30T04:12:46.582Z,30.53
2023-04-30T04:15:13.665Z,28.13
2023-04-30T04:17:42.146Z,29.47
2023-04-30T04:20:14.126Z,29.13
2023-04-30T04:22:42.103Z,24.47
2023-04-30T04:25:11.324Z,26.80
2023-04-30T04:27:39.274Z,26.53
2023-04-30T04:30:09.769Z,25.03
2023-04-30T04:32:48.369Z,26.03
2023-04-30T04:35:16.375Z,29.90
2023-04-30T04:37:43.856Z,26.20
2023-04-30T04:40:12.548Z,21.70
2023-04-30T04:42:40.129Z,23.87
2023-04-30T04:45:08.775Z,25.80
2023-04-30T04:47:36.913Z,23.13
2023-04-30T04:50:04.945Z,25.17
2023-04-30T04:52:32.639Z,23.37
2023-04-30T04:55:00.584Z,23.33
2023-04-30T04:57:28.533Z,21.03
2023-04-30T04:59:57.501Z,22.87
2023-04-30T05:02:25.539Z,22.30
2023-04-30T05:04:53.391Z,19.50
2023-04-30T05:07:21.332Z,22.73
2023-04-30T05:09:49.165Z,24.43
2023-04-30T05:12:16.595Z,20.63
2023-04-30T05:14:44.896Z,22.07
2023-04-30T05:17:12.334Z,24.20
2023-04-30T05:19:40.237Z,20.70
2023-04-30T05:22:07.791Z,21.83
2023-04-30T05:24:35.700Z,23.60
2023-04-30T05:27:06.053Z,21.47
2023-04-30T05:29:33.498Z,17.53
2023-04-30T05:32:02.058Z,19.37
2023-04-30T05:34:29.597Z,17.77
2023-04-30T05:37:01.593Z,17.67
2023-04-30T05:39:29.566Z,19.37
2023-04-30T05:41:57.314Z,19.13
2023-04-30T05:44:25.399Z,18.63
2023-04-30T05:46:52.928Z,17.30
2023-04-30T05:49:20.769Z,19.63
2023-04-30T05:51:48.653Z,18.97
2023-04-30T05:54:16.157Z,20.23
2023-04-30T05:56:43.944Z,17.73
2023-04-30T05:59:11.658Z,19.63
2023-04-30T06:01:39.700Z,17.43
2023-04-30T06:04:09.304Z,15.73
2023-04-30T06:06:36.979Z,16.63
2023-04-30T06:09:05.226Z,19.07
2023-04-30T06:11:32.666Z,21.77
2023-04-30T06:14:00.606Z,17.87
2023-04-30T06:16:28.137Z,16.30
2023-04-30T06:18:55.701Z,18.07
2023-04-30T06:21:26.044Z,17.93
2023-04-30T06:23:53.547Z,18.47
2023-04-30T06:26:21.147Z,16.07
2023-04-30T06:28:48.691Z,18.43
2023-04-30T06:31:17.310Z,16.87
2023-04-30T06:33:44.882Z,15.33
2023-04-30T06:36:12.263Z,18.83
2023-04-30T06:38:40.098Z,19.00
2023-04-30T06:41:09.148Z,19.00
2023-04-30T06:43:37.018Z,18.20
2023-04-30T06:46:06.653Z,19.90
2023-04-30T06:48:34.569Z,16.43
2023-04-30T06:51:02.899Z,19.57
2023-04-30T06:53:30.754Z,17.47
2023-04-30T06:55:58.711Z,16.80
2023-04-30T06:58:26.835Z,15.83
2023-04-30T07:00:54.397Z,16.77
2023-04-30T07:03:22.151Z,18.50
2023-04-30T07:05:50.461Z,16.83
2023-04-30T07:08:24.483Z,18.53
2023-04-30T07:10:52.566Z,14.23
2023-04-30T07:13:19.973Z,16.00
2023-04-30T07:15:47.481Z,19.47
2023-04-30T07:18:16.484Z,13.80
2023-04-30T07:20:44.340Z,15.87
2023-04-30T07:23:12.243Z,15.50
2023-04-30T07:25:46.266Z,13.77
2023-04-30T07:28:13.888Z,15.13
2023-04-30T07:30:41.777Z,15.87
2023-04-30T07:33:09.701Z,11.50
2023-04-30T07:35:37.452Z,15.13
2023-04-30T07:38:05.956Z,15.57
2023-04-30T07:40:36.305Z,14.87
2023-04-30T07:43:05.160Z,12.53
2023-04-30T07:45:33.937Z,11.40
2023-04-30T07:48:01.566Z,11.67
2023-04-30T07:50:33.734Z,12.80
2023-04-30T07:53:01.922Z,11.67
2023-04-30T07:55:29.439Z,12.50
2023-04-30T07:57:56.964Z,10.90
2023-04-30T08:00:24.217Z,10.07
2023-04-30T08:02:52.275Z,12.63
2023-04-30T08:05:20.473Z,11.00
2023-04-30T08:07:48.435Z,10.77
2023-04-30T08:10:16.476Z,13.87
2023-04-30T08:12:44.357Z,12.90
2023-04-30T08:15:12.226Z,13.07
2023-04-30T08:17:40.173Z,9.87
2023-04-30T08:20:10.690Z,11.17
2023-04-30T08:22:38.559Z,14.47
2023-04-30T08:25:07.593Z,12.30
2023-04-30T08:27:35.418Z,14.60
2023-04-30T08:30:03.752Z,12.73
2023-04-30T08:32:31.632Z,10.90
2023-04-30T08:34:59.481Z,12.43
2023-04-30T08:37:27.381Z,11.00
2023-04-30T08:39:55.561Z,16.00
2023-04-30T08:42:25.840Z,17.90
2023-04-30T08:44:53.366Z,12.30
2023-04-30T08:47:21.811Z,10.73
2023-04-30T08:49:48.577Z,10.97
2023-04-30T08:52:16.565Z,10.63
2023-04-30T08:54:44.827Z,10.53
2023-04-30T08:57:12.680Z,9.37
2023-04-30T08:59:40.602Z,12.00
2023-04-30T09:02:10.171Z,9.73
2023-04-30T09:04:37.965Z,13.77
2023-04-30T09:07:06.869Z,11.00
2023-04-30T09:09:39.426Z,8.20
2023-04-30T09:12:17.799Z,8.70
2023-04-30T09:15:04.971Z,8.33
2023-04-30T09:17:33.019Z,7.57
2023-04-30T09:20:12.580Z,6.90
2023-04-30T09:22:41.501Z,10.70
2023-04-30T09:25:08.804Z,9.67
2023-04-30T09:27:36.536Z,8.17
2023-04-30T09:30:04.888Z,12.77
2023-04-30T09:32:32.950Z,5.87
2023-04-30T09:35:00.626Z,6.57
2023-04-30T09:37:38.357Z,6.60
2023-04-30T09:40:05.502Z,7.80
2023-04-30T09:42:33.692Z,6.30
2023-04-30T09:45:01.731Z,3.53
2023-04-30T09:47:32.197Z,4.25
2023-04-30T09:50:00.648Z,4.90
2023-04-30T09:52:27.802Z,4.17
2023-04-30T09:54:55.391Z,6.53
2023-04-30T09:57:24.005Z,5.87
2023-04-30T09:59:51.705Z,3.70
2023-04-30T10:02:21.310Z,3.77
2023-04-30T10:04:50.019Z,3.15
2023-04-30T10:07:20.116Z,4.53
2023-04-30T10:10:03.255Z,1.80
2023-04-30T10:12:52.456Z,3.50
2023-04-30T10:15:30.831Z,2.08
2023-04-30T10:18:46.321Z,2.38
2023-04-30T10:21:14.211Z,4.38
2023-04-30T10:23:43.812Z,4.07
2023-04-30T10:26:16.372Z,4.45
2023-04-30T10:28:43.950Z,4.75
2023-04-30T10:31:11.209Z,4.45
2023-04-30T10:33:58.717Z,2.83
2023-04-30T10:37:08.455Z,2.60
2023-04-30T10:39:36.178Z,2.05
2023-04-30T10:42:03.876Z,2.33
2023-04-30T10:44:38.401Z,2.92
2023-04-30T10:47:07.207Z,3.42
2023-04-30T10:49:35.131Z,3.00
2023-04-30T10:52:03.699Z,2.75
2023-04-30T10:54:37.624Z,3.35
2023-04-30T10:57:14.301Z,6.40
2023-04-30T11:00:08.483Z,4.25
2023-04-30T11:02:44.149Z,1.98
2023-04-30T11:05:15.626Z,3.08
2023-04-30T11:07:50.548Z,2.53
2023-04-30T11:10:21.216Z,4.90
2023-04-30T11:12:49.282Z,3.05
2023-04-30T11:15:18.768Z,3.25
2023-04-30T11:17:46.054Z,3.67
2023-04-30T11:20:13.956Z,6.40
2023-04-30T11:22:41.701Z,2.53
2023-04-30T11:25:16.078Z,2.03
2023-04-30T11:27:47.681Z,3.78
2023-04-30T11:30:16.026Z,2.17
2023-04-30T11:32:48.083Z,2.70
2023-04-30T11:35:18.799Z,2.40
2023-04-30T11:37:46.518Z,1.95
2023-04-30T11:40:14.441Z,2.13
2023-04-30T11:42:47.021Z,4.85
2023-04-30T11:45:17.581Z,1.33
2023-04-30T11:47:56.836Z,2.30
2023-04-30T11:50:30.286Z,1.25
2023-04-30T11:52:57.649Z,3.20
2023-04-30T11:55:25.764Z,3.67
2023-04-30T11:57:58.782Z,1.98
2023-04-30T12:00:30.210Z,1.90
2023-04-30T12:02:57.905Z,2.60
2023-04-30T12:05:25.889Z,4.32
2023-04-30T12:07:57.697Z,1.77
2023-04-30T12:10:28.824Z,2.63
2023-04-30T12:12:56.564Z,3.53
2023-04-30T12:15:28.068Z,2.95
2023-04-30T12:18:00.052Z,3.65
2023-04-30T12:20:28.996Z,2.35
2023-04-30T12:22:56.168Z,2.13
2023-04-30T12:25:23.561Z,4.05
2023-04-30T12:27:53.742Z,4.53
2023-04-30T12:30:27.574Z,3.17
2023-04-30T12:32:54.868Z,1.83
2023-04-30T12:35:23.636Z,2.58
2023-04-30T12:37:52.709Z,1.83
2023-04-30T12:40:27.107Z,2.42
2023-04-30T12:43:08.461Z,5.35
2023-04-30T12:45:48.870Z,3.40
2023-04-30T12:48:16.007Z,1.48
2023-04-30T12:50:43.264Z,0.90
2023-04-30T12:53:10.572Z,1.65
2023-04-30T12:55:39.451Z,1.65
2023-04-30T12:58:11.421Z,1.67
2023-04-30T13:00:51.099Z,3.03
2023-04-30T13:03:20.042Z,2.47
2023-04-30T13:05:48.775Z,1.58
2023-04-30T13:08:16.817Z,1.80
2023-04-30T13:10:44.557Z,2.17
2023-04-30T13:13:12.505Z,1.48
2023-04-30T13:15:40.801Z,1.83
2023-04-30T13:18:12.600Z,3.45
2023-04-30T13:20:40.397Z,1.15
2023-04-30T13:23:08.483Z,2.33
2023-04-30T13:25:36.134Z,1.38
2023-04-30T13:28:04.051Z,1.33
2023-04-30T13:30:31.935Z,2.40
2023-04-30T13:32:59.860Z,4.78
2023-04-30T13:35:27.047Z,1.42
2023-04-30T13:37:55.060Z,1.60
2023-04-30T13:40:22.989Z,1.00
2023-04-30T13:42:50.520Z,1.88
2023-04-30T13:45:18.291Z,2.53
2023-04-30T13:47:46.207Z,2.47
2023-04-30T13:50:13.643Z,2.33
2023-04-30T13:52:41.165Z,4.10
2023-04-30T13:55:29.764Z,3.17
2023-04-30T13:57:58.563Z,3.03
2023-04-30T14:00:26.656Z,3.17
2023-04-30T14:02:54.718Z,2.78
2023-04-30T14:05:22.842Z,1.58
2023-04-30T14:07:50.379Z,2.72
2023-04-30T14:10:18.473Z,1.80
2023-04-30T14:12:46.158Z,2.25
2023-04-30T14:15:13.650Z,1.50
2023-04-30T14:17:41.480Z,3.47
2023-04-30T14:20:13.816Z,4.45
2023-04-30T14:22:41.716Z,2.97
2023-04-30T14:25:11.429Z,1.98
2023-04-30T14:27:39.498Z,3.80
2023-04-30T14:30:09.432Z,2.53
2023-04-30T14:32:37.681Z,2.40
2023-04-30T14:35:08.180Z,4.78
2023-04-30T14:37:35.948Z,2.10
2023-04-30T14:40:06.727Z,2.38
2023-04-30T14:42:33.951Z,2.30
2023-04-30T14:45:01.460Z,1.50
2023-04-30T14:47:29.265Z,2.10
2023-04-30T14:49:59.047Z,2.55
2023-04-30T14:52:27.184Z,3.03
2023-04-30T14:54:54.657Z,2.50
2023-04-30T14:57:23.850Z,2.20
2023-04-30T14:59:52.739Z,1.98
2023-04-30T15:02:21.886Z,2.72
2023-04-30T15:04:49.686Z,2.42
2023-04-30T15:07:17.626Z,2.13
2023-04-30T15:09:46.722Z,1.15
2023-04-30T15:12:15.209Z,2.35
2023-04-30T15:14:43.038Z,1.98
2023-04-30T15:17:11.761Z,2.28
2023-04-30T15:19:39.161Z,2.22
2023-04-30T15:22:10.107Z,1.40
2023-04-30T15:24:38.268Z,1.63
2023-04-30T15:27:06.053Z,1.70
2023-04-30T15:29:33.818Z,3.17
2023-04-30T15:32:04.604Z,3.10
2023-04-30T15:34:32.299Z,2.10
2023-04-30T15:36:59.924Z,2.25
2023-04-30T15:39:27.360Z,2.03
2023-04-30T15:41:54.813Z,1.55
2023-04-30T15:44:22.700Z,1.27
2023-04-30T15:46:51.695Z,1.67
2023-04-30T15:49:19.401Z,1.98
2023-04-30T15:51:47.257Z,1.90
2023-04-30T15:54:14.955Z,2.35
2023-04-30T15:56:42.360Z,1.08
2023-04-30T15:59:10.223Z,2.05
2023-04-30T16:01:41.745Z,1.55
2023-04-30T16:04:09.771Z,2.17
2023-04-30T16:06:37.112Z,3.88
2023-04-30T16:09:07.599Z,4.28
2023-04-30T16:11:36.164Z,1.52
2023-04-30T16:14:03.621Z,1.92
2023-04-30T16:16:31.281Z,1.25
2023-04-30T16:18:58.690Z,2.72
2023-04-30T16:21:27.290Z,1.63
2023-04-30T16:23:55.150Z,5.85
2023-04-30T16:26:23.378Z,3.55
2023-04-30T16:28:51.404Z,3.97
2023-04-30T16:31:22.783Z,3.30
2023-04-30T16:33:50.773Z,2.38
2023-04-30T16:36:18.280Z,1.60
2023-04-30T16:38:46.768Z,3.00
2023-04-30T16:41:40.666Z,3.38
2023-04-30T16:44:08.196Z,2.00
2023-04-30T16:46:36.278Z,3.63
2023-04-30T16:49:04.126Z,4.47
2023-04-30T16:51:32.941Z,2.22
2023-04-30T16:54:00.799Z,3.00
2023-04-30T16:56:28.928Z,2.43
2023-04-30T16:58:56.519Z,3.07
2023-04-30T17:01:24.127Z,2.63
2023-04-30T17:03:52.074Z,3.70
2023-04-30T17:06:19.655Z,2.80
2023-04-30T17:08:47.416Z,2.20
2023-04-30T17:11:19.209Z,2.23
2023-04-30T17:13:46.790Z,3.50
2023-04-30T17:16:14.649Z,5.83
2023-04-30T17:18:42.624Z,4.20
2023-04-30T17:21:10.772Z,4.27
2023-04-30T17:23:38.325Z,3.77
2023-04-30T17:26:06.384Z,5.83
2023-04-30T17:28:34.236Z,2.97
2023-04-30T17:31:07.178Z,2.60
2023-04-30T17:33:35.394Z,7.47
2023-04-30T17:36:03.045Z,6.77
2023-04-30T17:38:30.584Z,4.93
2023-04-30T17:40:58.189Z,3.43
2023-04-30T17:43:25.942Z,2.30
2023-04-30T17:45:53.822Z,3.07
2023-04-30T17:48:21.526Z,5.83
2023-04-30T17:50:50.579Z,2.50
2023-04-30T17:53:18.015Z,3.47
2023-04-30T17:55:45.654Z,2.20
2023-04-30T17:58:13.104Z,2.27
2023-04-30T18:00:42.704Z,3.43
2023-04-30T18:03:11.146Z,2.93
2023-04-30T18:05:39.619Z,2.93
2023-04-30T18:08:07.564Z,2.43
2023-04-30T18:10:37.288Z,4.17
2023-04-30T18:13:04.832Z,5.53
2023-04-30T18:15:33.265Z,6.67
2023-04-30T18:18:01.022Z,5.13
2023-04-30T18:20:28.665Z,6.60
2023-04-30T18:22:56.744Z,5.07
2023-04-30T18:25:23.764Z,5.97
2023-04-30T18:27:51.499Z,3.33
2023-04-30T18:30:18.995Z,6.43
2023-04-30T18:32:46.865Z,5.77
2023-04-30T18:35:14.905Z,4.53
2023-04-30T18:37:42.880Z,4.20
2023-04-30T18:40:12.034Z,3.63
2023-04-30T18:42:39.568Z,6.73
2023-04-30T18:45:09.961Z,2.37
2023-04-30T18:47:37.634Z,3.03
2023-04-30T18:50:10.443Z,3.63
2023-04-30T18:52:38.135Z,3.17
2023-04-30T18:55:07.729Z,3.80
2023-04-30T18:57:35.766Z,1.90
2023-04-30T19:00:04.139Z,2.90
2023-04-30T19:02:32.633Z,1.70
2023-04-30T19:05:01.544Z,2.97
2023-04-30T19:07:29.432Z,2.77
2023-04-30T19:09:57.122Z,3.50
2023-04-30T19:12:24.877Z,5.37
2023-04-30T19:14:53.042Z,1.90
2023-04-30T19:17:21.879Z,2.27
2023-04-30T19:19:50.305Z,1.87
2023-04-30T19:22:19.495Z,3.17
2023-04-30T19:24:47.319Z,3.77
2023-04-30T19:27:15.359Z,2.73
2023-04-30T19:29:43.945Z,3.87
2023-04-30T19:32:11.730Z,1.97
2023-04-30T19:34:39.171Z,3.93
2023-04-30T19:37:07.160Z,3.93
2023-04-30T19:39:36.631Z,3.30
2023-04-30T19:42:04.324Z,8.13
2023-04-30T19:44:31.764Z,3.10
2023-04-30T19:46:59.224Z,3.30
2023-04-30T19:49:27.305Z,2.90
2023-04-30T19:51:55.053Z,4.30
2023-04-30T19:54:22.631Z,3.77
2023-04-30T19:56:52.925Z,2.80
2023-04-30T19:59:21.062Z,5.73
2023-04-30T20:01:48.765Z,3.10
2023-04-30T20:04:16.637Z,3.03
2023-04-30T20:06:44.717Z,3.97
2023-04-30T20:09:12.519Z,3.00
2023-04-30T20:11:40.388Z,3.43
2023-04-30T20:14:08.274Z,3.33
2023-04-30T20:16:36.054Z,6.50
2023-04-30T20:19:04.347Z,4.73
2023-04-30T20:21:32.111Z,4.90
2023-04-30T20:24:00.343Z,5.13
2023-04-30T20:26:50.321Z,3.43
2023-04-30T20:29:20.683Z,4.47
2023-04-30T20:31:48.194Z,7.30
2023-04-30T20:34:15.973Z,10.27
2023-04-30T20:36:43.878Z,4.00
2023-04-30T20:39:12.147Z,5.10
2023-04-30T20:41:41.207Z,7.13
2023-04-30T20:44:08.622Z,4.63
2023-04-30T20:46:36.985Z,4.20
2023-04-30T20:49:05.211Z,5.17
2023-04-30T20:51:33.076Z,4.30
2023-04-30T20:54:00.477Z,4.07
2023-04-30T20:56:28.302Z,4.13
2023-04-30T20:58:55.996Z,4.20
2023-04-30T21:01:24.331Z,5.07
2023-04-30T21:03:51.900Z,6.30
2023-04-30T21:06:19.677Z,5.37
2023-04-30T21:09:07.156Z,5.33
2023-04-30T21:11:35.440Z,6.10
2023-04-30T21:14:03.339Z,4.80
2023-04-30T21:16:31.358Z,5.43
2023-04-30T21:18:59.662Z,5.57
2023-04-30T21:21:27.528Z,4.93
2023-04-30T21:23:55.504Z,7.27
2023-04-30T21:26:23.573Z,5.13
2023-04-30T21:28:52.980Z,5.90
2023-04-30T21:31:20.557Z,4.00
2023-04-30T21:33:48.184Z,9.30
2023-04-30T21:36:16.630Z,5.23
2023-04-30T21:38:44.531Z,4.07
2023-04-30T21:41:15.787Z,4.33
2023-04-30T21:43:43.390Z,4.67
2023-04-30T21:46:11.135Z,3.97
2023-04-30T21:48:39.377Z,4.60
2023-04-30T21:51:15.108Z,3.80
2023-04-30T21:53:42.925Z,4.05
2023-04-30T21:56:10.492Z,6.00
2023-04-30T21:58:38.908Z,4.33
2023-04-30T22:01:09.882Z,4.77
2023-04-30T22:03:37.775Z,4.77
2023-04-30T22:06:06.101Z,3.50
2023-04-30T22:08:33.683Z,5.67
2023-04-30T22:11:01.412Z,3.97
2023-04-30T22:13:28.756Z,4.13
2023-04-30T22:15:56.778Z,5.60
2023-04-30T22:18:24.702Z,4.33
2023-04-30T22:20:52.310Z,7.90
2023-04-30T22:23:23.201Z,7.03
2023-04-30T22:25:50.842Z,3.60
2023-04-30T22:28:23.504Z,3.83
2023-04-30T22:30:51.259Z,3.60
2023-04-30T22:33:18.967Z,5.17
2023-04-30T22:35:46.899Z,4.83
2023-04-30T22:38:14.404Z,4.87
2023-04-30T22:40:41.996Z,4.30
2023-04-30T22:43:10.066Z,5.10
2023-04-30T22:45:38.185Z,9.30
2023-04-30T22:48:07.262Z,5.73
2023-04-30T22:50:34.872Z,5.27
2023-04-30T22:53:02.844Z,4.80
2023-04-30T22:55:31.776Z,4.63
2023-04-30T22:58:00.955Z,6.17
2023-04-30T23:00:28.925Z,5.43
2023-04-30T23:02:56.718Z,5.10
2023-04-30T23:05:24.593Z,5.40
2023-04-30T23:07:52.360Z,6.53
2023-04-30T23:10:20.247Z,6.27
2023-04-30T23:12:48.031Z,6.37
2023-04-30T23:15:16.116Z,6.57
2023-04-30T23:17:44.212Z,6.17
2023-04-30T23:20:12.430Z,4.80
2023-04-30T23:22:40.312Z,5.10
2023-04-30T23:25:09.517Z,5.20
2023-04-30T23:27:37.362Z,5.53
2023-04-30T23:30:08.178Z,4.73
2023-04-30T23:32:36.143Z,5.30
2023-04-30T23:35:04.385Z,7.23
2023-04-30T23:37:32.232Z,5.13
2023-04-30T23:40:00.883Z,4.40
2023-04-30T23:42:28.287Z,5.53
2023-04-30T23:44:56.269Z,4.23
2023-04-30T23:47:24.103Z,5.63
2023-04-30T23:49:52.273Z,4.80
2023-04-30T23:52:20.108Z,5.33
2023-04-30T23:54:48.002Z,5.53
2023-04-30T23:57:15.472Z,5.10
2023-04-30T23:59:43.876Z,6.80
